Terminal Aerodrome Forecast
Issued by NWS

Home | Current Version | Previous Version | Graphics & Text | Print | Product List | Glossary On
Versions: 1 2 3 4 5 6 7 8 9 10 11 12 13 14 15 16 17
000
FTUS43 KMPX 230500 RRA
TAFAXN
TAF
KAXN 230547Z 2306/2406 17010KT 3SM BR SCT005
     FM230800 22007KT P6SM BKN070
     FM231400 27009KT P6SM BKN070
     FM232300 31015G25KT 6SM -SHSN BKN015=

USA.gov is the U.S. government's official web portal to all federal, state and local government web resources and services.